Time;durP1;ratioP1;P1;durP2;ratioP2;P2;SDS_P1;SDS_P2;PMS_P1;PMS_P2;Temp;Humidity;BMP_temperature;BMP_pressure;BME280_temperature;BME280_humidity;BME280_pressure;Samples;Min_cycle;Max_cycle;Signal;HPM_P1;HPM_P2
2023/10/25 00:01:16;;;;;;;7.67;3.97;;;;;;;;;;5015278;28;20432;-83
2023/10/25 00:03:42;;;;;;;7.47;4.57;;;;;;;;;;5015647;28;20414;-82
2023/10/25 00:06:08;;;;;;;7.10;4.67;;;;;;;;;;4999504;28;20189;-82
2023/10/25 00:08:34;;;;;;;8.43;4.20;;;;;;;;;;5015463;28;20486;-82
2023/10/25 00:11:03;;;;;;;6.53;4.27;;;;;;;;;;4998775;28;20906;-82
2023/10/25 00:13:29;;;;;;;6.05;3.95;;;;;;;;;;5014819;28;20917;-82
2023/10/25 00:15:55;;;;;;;7.13;4.60;;;;;;;;;;5016421;28;20189;-82
2023/10/25 00:18:21;;;;;;;12.60;4.17;;;;;;;;;;5015092;28;20449;-82
2023/10/25 00:20:47;;;;;;;5.10;3.57;;;;;;;;;;5016403;28;20412;-82
2023/10/25 00:23:13;;;;;;;4.80;4.10;;;;;;;;;;5015534;28;20460;-82
2023/10/25 00:25:39;;;;;;;5.97;3.38;;;;;;;;;;5016236;28;20462;-82
2023/10/25 00:28:05;;;;;;;7.00;4.03;;;;;;;;;;5016058;28;20200;-82
2023/10/25 00:30:31;;;;;;;5.07;3.73;;;;;;;;;;5016072;28;20421;-82
2023/10/25 00:32:57;;;;;;;5.13;3.80;;;;;;;;;;4998619;28;20421;-82
2023/10/25 00:35:23;;;;;;;6.80;4.27;;;;;;;;;;5016117;28;20422;-82
2023/10/25 00:37:49;;;;;;;16.33;3.73;;;;;;;;;;5015245;28;20450;-82
2023/10/25 00:40:15;;;;;;;7.07;4.70;;;;;;;;;;5015730;28;20418;-82
2023/10/25 00:42:41;;;;;;;12.23;4.30;;;;;;;;;;5015559;28;20488;-81
2023/10/25 00:45:07;;;;;;;6.43;4.13;;;;;;;;;;4997990;28;20473;-82
2023/10/25 00:47:33;;;;;;;4.68;3.70;;;;;;;;;;5016049;28;20421;-82
2023/10/25 00:49:59;;;;;;;10.55;3.72;;;;;;;;;;5014714;28;20179;-82
2023/10/25 00:52:25;;;;;;;5.87;3.87;;;;;;;;;;5014610;28;20236;-82
2023/10/25 00:54:52;;;;;;;6.03;3.40;;;;;;;;;;5014405;28;20426;-82
2023/10/25 00:57:18;;;;;;;6.05;3.97;;;;;;;;;;5014849;28;20428;-82
2023/10/25 00:59:44;;;;;;;6.28;3.90;;;;;;;;;;5014713;28;20182;-82
2023/10/25 01:02:17;;;;;;;11.77;4.40;;;;;;;;;;5071986;28;21032;-83
2023/10/25 01:04:43;;;;;;;7.30;5.50;;;;;;;;;;5053843;28;20543;-82
2023/10/25 01:07:09;;;;;;;11.32;4.05;;;;;;;;;;5052213;28;20539;-82
2023/10/25 01:09:35;;;;;;;5.47;4.50;;;;;;;;;;5051008;28;20626;-82
2023/10/25 01:12:01;;;;;;;7.55;4.50;;;;;;;;;;5051034;28;20176;-83
2023/10/25 01:14:28;;;;;;;7.85;4.60;;;;;;;;;;5050816;28;20256;-83
2023/10/25 01:16:54;;;;;;;7.68;4.78;;;;;;;;;;5051678;28;20166;-83
2023/10/25 01:19:20;;;;;;;8.67;5.47;;;;;;;;;;5052089;28;20181;-83
2023/10/25 01:21:46;;;;;;;8.73;4.67;;;;;;;;;;5055031;28;20458;-83
2023/10/25 01:24:12;;;;;;;5.87;4.13;;;;;;;;;;5050427;28;20883;-83
2023/10/25 01:26:37;;;;;;;10.10;5.50;;;;;;;;;;5043106;28;20414;-83
2023/10/25 01:29:04;;;;;;;6.67;4.70;;;;;;;;;;5070614;28;20429;-82
2023/10/25 01:31:30;;;;;;;17.65;5.45;;;;;;;;;;5050356;28;20427;-81
2023/10/25 01:33:56;;;;;;;10.98;4.95;;;;;;;;;;5050848;28;20256;-83
2023/10/25 01:36:22;;;;;;;7.93;4.95;;;;;;;;;;5050030;28;20226;-84
2023/10/25 01:38:48;;;;;;;5.80;4.80;;;;;;;;;;5055510;28;20517;-84
2023/10/25 01:41:17;;;;;;;7.03;4.85;;;;;;;;;;5051340;28;20523;-84
2023/10/25 01:43:46;;;;;;;13.00;5.20;;;;;;;;;;5041817;28;20173;-84
2023/10/25 01:46:12;;;;;;;5.53;4.25;;;;;;;;;;5051578;28;20220;-84
2023/10/25 01:48:38;;;;;;;7.25;4.93;;;;;;;;;;5033029;28;20277;-84
2023/10/25 01:51:07;;;;;;;7.70;5.22;;;;;;;;;;5049541;28;20212;-83
2023/10/25 01:53:36;;;;;;;5.60;4.15;;;;;;;;;;5063206;28;20527;-83
2023/10/25 01:56:02;;;;;;;9.40;4.53;;;;;;;;;;5032876;28;20173;-83
2023/10/25 01:58:28;;;;;;;5.28;4.78;;;;;;;;;;5051085;28;20514;-83
2023/10/25 02:00:54;;;;;;;7.00;4.55;;;;;;;;;;5053337;28;20316;-84
2023/10/25 02:03:20;;;;;;;15.80;5.23;;;;;;;;;;5024131;28;20198;-83
2023/10/25 02:05:46;;;;;;;6.27;4.87;;;;;;;;;;5048003;28;20559;-84
2023/10/25 02:08:12;;;;;;;12.23;4.80;;;;;;;;;;5048075;28;20891;-84
2023/10/25 02:10:38;;;;;;;10.13;4.73;;;;;;;;;;5049590;28;20401;-84
2023/10/25 02:13:04;;;;;;;6.20;3.97;;;;;;;;;;5039771;28;20423;-84
2023/10/25 02:15:30;;;;;;;5.80;4.63;;;;;;;;;;5035666;28;20416;-84
2023/10/25 02:17:56;;;;;;;7.43;4.50;;;;;;;;;;5036557;28;20433;-84
2023/10/25 02:20:23;;;;;;;5.90;4.40;;;;;;;;;;5042431;28;20461;-84
2023/10/25 02:22:49;;;;;;;7.13;4.68;;;;;;;;;;5035588;28;20427;-83
2023/10/25 02:25:15;;;;;;;9.60;4.47;;;;;;;;;;5015869;28;20197;-83
2023/10/25 02:27:40;;;;;;;13.43;5.50;;;;;;;;;;5034005;28;20405;-84
2023/10/25 02:30:07;;;;;;;10.03;5.20;;;;;;;;;;5035217;28;20429;-83
2023/10/25 02:32:33;;;;;;;6.72;5.80;;;;;;;;;;5025212;28;20421;-84
2023/10/25 02:34:59;;;;;;;10.53;6.00;;;;;;;;;;5035523;28;20623;-84
2023/10/25 02:37:25;;;;;;;11.53;6.17;;;;;;;;;;5038196;28;20744;-84
2023/10/25 02:39:50;;;;;;;11.73;5.97;;;;;;;;;;5035787;28;20413;-84
2023/10/25 02:42:16;;;;;;;8.60;5.80;;;;;;;;;;5036929;28;20463;-84
2023/10/25 02:44:42;;;;;;;15.57;6.00;;;;;;;;;;5036983;28;20420;-84
2023/10/25 02:47:08;;;;;;;14.00;4.90;;;;;;;;;;5052093;28;20451;-83
2023/10/25 02:49:34;;;;;;;9.10;4.87;;;;;;;;;;5036266;28;20742;-84
2023/10/25 02:52:00;;;;;;;12.57;5.77;;;;;;;;;;5035395;28;20515;-84
2023/10/25 02:54:26;;;;;;;6.00;4.80;;;;;;;;;;5034887;28;20420;-84
2023/10/25 02:56:52;;;;;;;6.27;5.20;;;;;;;;;;5034920;28;20397;-84
2023/10/25 02:59:18;;;;;;;16.60;5.80;;;;;;;;;;5036088;28;20413;-84
2023/10/25 03:01:44;;;;;;;11.00;5.40;;;;;;;;;;5053032;28;21026;-84
2023/10/25 03:04:10;;;;;;;6.93;4.60;;;;;;;;;;5035706;28;20816;-84
2023/10/25 03:06:36;;;;;;;6.20;4.87;;;;;;;;;;5007943;28;20429;-84
2023/10/25 03:09:02;;;;;;;7.20;5.37;;;;;;;;;;5031569;28;20417;-85
2023/10/25 03:11:28;;;;;;;7.70;4.97;;;;;;;;;;5035238;28;20416;-85
2023/10/25 03:13:54;;;;;;;9.60;5.20;;;;;;;;;;5035235;28;20182;-84
2023/10/25 03:16:20;;;;;;;9.73;4.83;;;;;;;;;;5035538;28;20417;-85
2023/10/25 03:18:46;;;;;;;9.00;5.60;;;;;;;;;;5035259;28;20967;-83
2023/10/25 03:21:12;;;;;;;9.00;4.60;;;;;;;;;;5035288;28;20516;-85
2023/10/25 03:23:38;;;;;;;6.70;4.83;;;;;;;;;;5003022;28;20434;-85
2023/10/25 03:26:05;;;;;;;6.30;5.05;;;;;;;;;;5014370;28;20445;-85
2023/10/25 03:28:31;;;;;;;10.73;5.57;;;;;;;;;;5031126;28;20177;-85
2023/10/25 03:30:57;;;;;;;11.13;6.43;;;;;;;;;;5035565;28;20182;-85
2023/10/25 03:33:23;;;;;;;6.53;5.53;;;;;;;;;;5034967;28;20247;-85
2023/10/25 03:35:53;;;;;;;7.22;5.72;;;;;;;;;;5034405;28;20866;-85
2023/10/25 03:38:19;;;;;;;7.38;5.75;;;;;;;;;;5034078;28;20207;-85
2023/10/25 03:40:45;;;;;;;9.73;6.43;;;;;;;;;;5048867;28;20194;-86
2023/10/25 03:43:11;;;;;;;10.37;6.40;;;;;;;;;;5045411;28;20445;-86
2023/10/25 03:45:37;;;;;;;8.47;5.83;;;;;;;;;;5034338;28;20500;-85
2023/10/25 03:48:03;;;;;;;8.18;6.60;;;;;;;;;;5004833;28;20422;-85
2023/10/25 03:50:29;;;;;;;11.95;7.40;;;;;;;;;;5026391;28;20190;-85
2023/10/25 03:52:55;;;;;;;8.17;7.37;;;;;;;;;;5033936;28;20185;-84
2023/10/25 03:55:21;;;;;;;9.15;7.32;;;;;;;;;;5034893;28;20424;-81
2023/10/25 03:57:47;;;;;;;14.75;7.57;;;;;;;;;;5034281;28;20529;-84
2023/10/25 04:00:14;;;;;;;9.32;7.72;;;;;;;;;;5027548;28;20232;-84
2023/10/25 04:02:40;;;;;;;12.25;8.70;;;;;;;;;;5034212;28;20174;-85
2023/10/25 04:05:06;;;;;;;11.03;8.33;;;;;;;;;;5031679;28;20247;-85
2023/10/25 04:07:32;;;;;;;14.50;8.45;;;;;;;;;;5050270;28;20481;-85
2023/10/25 04:09:58;;;;;;;11.20;8.10;;;;;;;;;;5037069;28;20188;-85
2023/10/25 04:12:27;;;;;;;11.50;9.13;;;;;;;;;;5042751;28;20181;-85
2023/10/25 04:14:53;;;;;;;21.90;9.15;;;;;;;;;;5013682;28;20426;-85
2023/10/25 04:17:19;;;;;;;13.15;8.70;;;;;;;;;;5018685;28;20190;-84
2023/10/25 04:19:45;;;;;;;9.30;7.63;;;;;;;;;;5003631;28;20175;-82
2023/10/25 04:22:13;;;;;;;13.17;8.40;;;;;;;;;;5032751;28;20456;-83
2023/10/25 04:24:39;;;;;;;10.68;8.60;;;;;;;;;;5034220;28;20523;-83
2023/10/25 04:27:05;;;;;;;16.33;9.40;;;;;;;;;;5033158;28;20182;-84
2023/10/25 04:29:31;;;;;;;18.48;9.85;;;;;;;;;;5038128;28;20178;-85
2023/10/25 04:31:57;;;;;;;13.98;7.53;;;;;;;;;;5041099;28;20196;-84
2023/10/25 04:34:23;;;;;;;11.15;8.70;;;;;;;;;;5033492;28;20508;-84
2023/10/25 04:36:49;;;;;;;13.57;8.87;;;;;;;;;;5044219;28;20184;-85
2023/10/25 04:39:15;;;;;;;12.55;8.27;;;;;;;;;;5034192;28;20810;-85
2023/10/25 04:41:41;;;;;;;10.73;8.10;;;;;;;;;;5032882;28;20280;-84
2023/10/25 04:44:08;;;;;;;11.00;8.65;;;;;;;;;;5032145;28;20181;-84
2023/10/25 04:46:34;;;;;;;23.25;9.00;;;;;;;;;;5034099;28;20571;-84
2023/10/25 04:49:00;;;;;;;9.32;7.50;;;;;;;;;;5048471;28;20190;-85
2023/10/25 04:51:26;;;;;;;12.82;8.35;;;;;;;;;;5033714;28;20253;-83
2023/10/25 04:53:52;;;;;;;14.85;8.80;;;;;;;;;;5042971;28;20347;-84
2023/10/25 04:56:22;;;;;;;10.20;7.68;;;;;;;;;;5034312;28;20210;-83
2023/10/25 04:58:48;;;;;;;13.48;8.07;;;;;;;;;;5034290;28;20227;-83
2023/10/25 05:01:14;;;;;;;10.90;8.10;;;;;;;;;;5039506;28;20237;-84
2023/10/25 05:03:40;;;;;;;7.82;6.82;;;;;;;;;;5046950;28;20178;-84
2023/10/25 05:06:07;;;;;;;13.88;7.47;;;;;;;;;;5032092;28;20178;-84
2023/10/25 05:08:33;;;;;;;9.48;7.05;;;;;;;;;;5033619;28;20614;-84
2023/10/25 05:11:02;;;;;;;12.60;7.65;;;;;;;;;;5026186;28;20235;-84
2023/10/25 05:13:28;;;;;;;7.03;6.32;;;;;;;;;;5033783;28;20185;-84
2023/10/25 05:15:54;;;;;;;9.57;6.78;;;;;;;;;;5033400;28;20507;-84
2023/10/25 05:18:20;;;;;;;8.30;5.50;;;;;;;;;;5031709;28;20704;-83
2023/10/25 05:20:47;;;;;;;15.50;7.85;;;;;;;;;;5032392;28;20301;-83
2023/10/25 05:23:14;;;;;;;7.40;5.85;;;;;;;;;;5033133;28;20184;-84
2023/10/25 05:25:40;;;;;;;11.45;6.25;;;;;;;;;;5033956;28;20492;-82
2023/10/25 05:28:06;;;;;;;6.60;5.70;;;;;;;;;;5048944;28;20182;-83
2023/10/25 05:30:32;;;;;;;10.25;5.18;;;;;;;;;;5048964;28;20204;-83
2023/10/25 05:33:03;;;;;;;7.70;4.75;;;;;;;;;;5035884;28;20243;-83
2023/10/25 05:35:29;;;;;;;10.10;4.60;;;;;;;;;;5053720;28;20168;-83
2023/10/25 05:37:55;;;;;;;8.63;5.30;;;;;;;;;;5053825;28;20178;-83
2023/10/25 05:40:22;;;;;;;8.48;5.13;;;;;;;;;;5051727;28;20241;-83
2023/10/25 05:42:48;;;;;;;6.00;4.47;;;;;;;;;;5053552;28;20518;-84
2023/10/25 05:45:14;;;;;;;5.70;4.95;;;;;;;;;;5051925;28;20521;-84
2023/10/25 05:47:41;;;;;;;8.25;5.80;;;;;;;;;;5053526;28;20181;-84
2023/10/25 05:50:10;;;;;;;7.70;4.40;;;;;;;;;;5040247;28;20188;-83
2023/10/25 05:52:36;;;;;;;7.05;4.57;;;;;;;;;;5036986;28;20173;-83
2023/10/25 05:55:02;;;;;;;7.38;4.90;;;;;;;;;;5023566;28;20177;-82
2023/10/25 05:57:28;;;;;;;7.30;4.55;;;;;;;;;;5055818;28;20174;-84
2023/10/25 05:59:54;;;;;;;5.03;4.10;;;;;;;;;;5046596;28;20194;-83
2023/10/25 06:02:25;;;;;;;6.20;4.38;;;;;;;;;;5035845;28;20221;-84
2023/10/25 06:04:52;;;;;;;11.05;5.10;;;;;;;;;;5036269;28;20181;-83
2023/10/25 06:07:18;;;;;;;6.47;4.55;;;;;;;;;;5036754;28;20174;-83
2023/10/25 06:09:44;;;;;;;7.93;5.25;;;;;;;;;;5037047;28;20197;-83
2023/10/25 06:12:10;;;;;;;8.48;5.05;;;;;;;;;;5035180;28;20235;-83
2023/10/25 06:14:37;;;;;;;7.90;4.40;;;;;;;;;;5035797;28;20201;-83
2023/10/25 06:17:03;;;;;;;5.72;4.47;;;;;;;;;;5035461;28;20244;-84
2023/10/25 06:19:29;;;;;;;12.48;5.47;;;;;;;;;;5035203;28;20205;-83
2023/10/25 06:21:55;;;;;;;7.28;4.90;;;;;;;;;;5035223;28;20664;-83
2023/10/25 06:24:22;;;;;;;7.65;5.45;;;;;;;;;;5035428;28;20304;-83
2023/10/25 06:26:47;;;;;;;9.23;5.20;;;;;;;;;;5035178;28;20176;-84
2023/10/25 06:29:13;;;;;;;11.87;5.30;;;;;;;;;;5019118;28;20189;-83
2023/10/25 06:31:39;;;;;;;9.67;5.80;;;;;;;;;;5035862;28;20519;-84
2023/10/25 06:34:05;;;;;;;9.80;4.60;;;;;;;;;;5034885;28;20415;-84
2023/10/25 06:36:32;;;;;;;7.90;4.80;;;;;;;;;;5036441;28;20709;-84
2023/10/25 06:39:04;;;;;;;10.70;3.92;;;;;;;;;;5035241;28;20413;-84
2023/10/25 06:41:30;;;;;;;6.20;4.30;;;;;;;;;;5038223;28;20598;-84
2023/10/25 06:43:56;;;;;;;6.43;5.20;;;;;;;;;;5055943;28;20256;-81
2023/10/25 06:46:22;;;;;;;10.07;4.85;;;;;;;;;;5056800;28;20495;-80
2023/10/25 06:48:48;;;;;;;13.38;4.72;;;;;;;;;;5055623;28;20266;-80
2023/10/25 06:51:15;;;;;;;6.30;3.83;;;;;;;;;;5055520;28;20181;-80
2023/10/25 06:53:42;;;;;;;8.20;5.13;;;;;;;;;;5044085;28;20174;-80
2023/10/25 06:56:08;;;;;;;8.93;4.80;;;;;;;;;;5018977;28;20182;-80
2023/10/25 06:58:34;;;;;;;7.95;4.30;;;;;;;;;;5042805;28;20230;-80
2023/10/25 07:01:01;;;;;;;8.90;5.03;;;;;;;;;;5054852;28;20240;-79
2023/10/25 07:03:35;;;;;;;10.98;5.15;;;;;;;;;;5056212;28;20639;-80
2023/10/25 07:06:03;;;;;;;7.32;4.40;;;;;;;;;;5056007;28;20177;-80
2023/10/25 07:08:29;;;;;;;7.72;4.90;;;;;;;;;;5054996;28;20175;-80
2023/10/25 07:10:55;;;;;;;7.20;5.60;;;;;;;;;;5039192;28;20186;-80
2023/10/25 07:13:23;;;;;;;9.65;5.35;;;;;;;;;;5056448;28;20192;-80
2023/10/25 07:15:49;;;;;;;16.85;9.30;;;;;;;;;;5055844;28;20184;-80
2023/10/25 07:18:15;;;;;;;10.27;8.43;;;;;;;;;;5038384;28;20285;-80
2023/10/25 07:20:41;;;;;;;12.17;7.13;;;;;;;;;;5056266;28;20284;-80
2023/10/25 07:23:08;;;;;;;18.37;8.60;;;;;;;;;;5054807;28;20900;-80
2023/10/25 07:25:34;;;;;;;13.15;7.85;;;;;;;;;;5056279;28;20408;-80
2023/10/25 07:28:00;;;;;;;9.20;7.70;;;;;;;;;;5056392;28;20248;-80
2023/10/25 07:30:27;;;;;;;11.80;8.25;;;;;;;;;;5055770;28;20854;-80
2023/10/25 07:32:53;;;;;;;11.75;7.60;;;;;;;;;;5038250;28;20177;-80
2023/10/25 07:35:19;;;;;;;13.10;8.27;;;;;;;;;;5054666;28;20254;-80
2023/10/25 07:37:45;;;;;;;13.18;8.50;;;;;;;;;;5056364;28;20895;-80
2023/10/25 07:40:11;;;;;;;13.30;8.27;;;;;;;;;;5038292;28;20181;-80
2023/10/25 07:42:37;;;;;;;12.52;7.53;;;;;;;;;;5054860;28;20174;-81
2023/10/25 07:45:03;;;;;;;15.77;8.40;;;;;;;;;;5055987;28;20169;-80
2023/10/25 07:47:29;;;;;;;13.70;7.85;;;;;;;;;;5037758;28;20446;-80
2023/10/25 07:49:55;;;;;;;12.20;7.87;;;;;;;;;;5054719;28;20181;-80
2023/10/25 07:52:23;;;;;;;11.17;7.37;;;;;;;;;;5054728;28;20408;-81
2023/10/25 07:54:49;;;;;;;15.43;6.80;;;;;;;;;;5056093;28;20392;-80
2023/10/25 07:57:15;;;;;;;9.35;7.88;;;;;;;;;;5038924;28;20184;-80
2023/10/25 07:59:41;;;;;;;10.35;6.30;;;;;;;;;;5055989;28;20204;-80
2023/10/25 08:02:07;;;;;;;8.53;6.97;;;;;;;;;;5052858;28;20265;-80
2023/10/25 08:04:33;;;;;;;9.40;6.18;;;;;;;;;;5053107;28;20443;-80
2023/10/25 08:06:59;;;;;;;10.00;6.10;;;;;;;;;;5037727;28;20197;-80
2023/10/25 08:09:25;;;;;;;8.63;5.40;;;;;;;;;;5055343;28;20162;-80
2023/10/25 08:11:54;;;;;;;8.70;5.35;;;;;;;;;;5055218;28;20178;-80
2023/10/25 08:14:20;;;;;;;5.78;5.03;;;;;;;;;;5053841;28;20177;-80
2023/10/25 08:16:46;;;;;;;10.35;4.00;;;;;;;;;;5054030;28;20260;-80
2023/10/25 08:19:12;;;;;;;6.65;4.10;;;;;;;;;;5053763;28;20208;-80
2023/10/25 08:21:38;;;;;;;6.83;3.80;;;;;;;;;;5053871;28;20583;-80
2023/10/25 08:24:05;;;;;;;8.98;4.30;;;;;;;;;;5053954;28;20944;-80
2023/10/25 08:26:35;;;;;;;4.80;3.80;;;;;;;;;;5035660;28;20178;-80
2023/10/25 08:29:02;;;;;;;6.07;3.85;;;;;;;;;;5035129;28;20162;-80
2023/10/25 08:31:28;;;;;;;5.00;3.42;;;;;;;;;;5034876;28;20178;-80
2023/10/25 08:33:54;;;;;;;5.50;3.50;;;;;;;;;;5033677;28;20213;-80
2023/10/25 08:36:20;;;;;;;9.47;3.93;;;;;;;;;;5033856;28;20173;-80
2023/10/25 08:38:46;;;;;;;9.00;4.22;;;;;;;;;;5033853;28;20444;-79
2023/10/25 08:41:12;;;;;;;4.90;4.10;;;;;;;;;;5035344;28;20221;-80
2023/10/25 08:43:40;;;;;;;7.20;4.68;;;;;;;;;;5034526;28;20961;-78
2023/10/25 08:46:06;;;;;;;7.15;4.32;;;;;;;;;;5036012;28;20173;-78
2023/10/25 08:48:32;;;;;;;4.80;3.50;;;;;;;;;;5037369;28;20243;-78
2023/10/25 08:51:02;;;;;;;9.88;3.85;;;;;;;;;;5019891;28;20276;-78
2023/10/25 08:53:29;;;;;;;8.38;4.13;;;;;;;;;;5043562;28;20615;-78
2023/10/25 08:55:56;;;;;;;6.00;3.83;;;;;;;;;;5035786;28;20257;-78
2023/10/25 08:58:23;;;;;;;7.53;3.90;;;;;;;;;;5034338;28;20488;-79
2023/10/25 09:00:51;;;;;;;7.55;4.25;;;;;;;;;;5034928;28;20717;-79
2023/10/25 09:03:32;;;;;;;3.53;3.10;;;;;;;;;;5035362;28;20166;-78
2023/10/25 09:06:08;;;;;;;8.02;2.92;;;;;;;;;;5034515;28;20208;-79
2023/10/25 09:08:35;;;;;;;6.60;3.60;;;;;;;;;;5033634;28;20645;-79
2023/10/25 09:11:02;;;;;;;6.15;3.67;;;;;;;;;;5035133;28;20236;-79
2023/10/25 09:13:29;;;;;;;6.32;3.55;;;;;;;;;;5034375;28;20493;-79
2023/10/25 09:16:05;;;;;;;3.10;2.80;;;;;;;;;;5035009;28;20228;-79
2023/10/25 09:18:32;;;;;;;3.03;2.72;;;;;;;;;;5033908;28;20216;-79
2023/10/25 09:20:58;;;;;;;6.18;3.17;;;;;;;;;;5034173;28;20269;-79
2023/10/25 09:23:24;;;;;;;4.63;2.65;;;;;;;;;;5036397;28;20181;-80
2023/10/25 09:25:50;;;;;;;9.13;4.75;;;;;;;;;;5038268;28;20678;-79
2023/10/25 09:28:30;;;;;;;10.23;4.63;;;;;;;;;;5039732;28;20178;-79
2023/10/25 09:31:00;;;;;;;8.88;4.25;;;;;;;;;;5046053;28;20226;-80
2023/10/25 09:33:29;;;;;;;23.83;6.07;;;;;;;;;;5057123;28;20181;-80
2023/10/25 09:35:56;;;;;;;12.63;4.50;;;;;;;;;;5049717;28;20179;-80
2023/10/25 09:38:22;;;;;;;7.25;3.70;;;;;;;;;;5038481;28;20629;-80
2023/10/25 09:40:49;;;;;;;4.68;2.83;;;;;;;;;;5037692;28;20221;-79
2023/10/25 09:43:18;;;;;;;5.40;3.80;;;;;;;;;;5037321;28;20289;-80
2023/10/25 09:45:49;;;;;;;4.40;3.00;;;;;;;;;;5039390;28;20205;-80
2023/10/25 09:48:16;;;;;;;4.72;2.90;;;;;;;;;;5050563;28;20251;-80
2023/10/25 09:50:45;;;;;;;6.60;3.50;;;;;;;;;;5053319;28;20261;-80
2023/10/25 09:53:20;;;;;;;4.50;3.50;;;;;;;;;;5038357;28;20201;-79
2023/10/25 09:55:54;;;;;;;4.60;2.92;;;;;;;;;;5038504;28;20176;-79
2023/10/25 09:58:22;;;;;;;4.38;3.05;;;;;;;;;;5037248;28;20178;-78
2023/10/25 10:00:49;;;;;;;6.95;4.10;;;;;;;;;;5037001;28;20230;-79
2023/10/25 10:03:29;;;;;;;5.30;3.22;;;;;;;;;;5038356;28;20174;-80
2023/10/25 10:05:58;;;;;;;4.43;3.45;;;;;;;;;;5037117;28;20178;-79
2023/10/25 10:08:30;;;;;;;4.07;2.67;;;;;;;;;;5038116;28;20166;-80
2023/10/25 10:10:59;;;;;;;3.03;2.70;;;;;;;;;;5036968;28;20193;-80
2023/10/25 10:13:26;;;;;;;10.98;3.28;;;;;;;;;;5037429;28;20166;-80
2023/10/25 10:15:57;;;;;;;8.43;3.05;;;;;;;;;;5037888;28;20166;-80
2023/10/25 10:18:23;;;;;;;4.03;3.40;;;;;;;;;;5037258;28;20240;-80
2023/10/25 10:21:00;;;;;;;3.50;2.30;;;;;;;;;;5037543;28;20205;-79
2023/10/25 10:23:34;;;;;;;4.80;3.20;;;;;;;;;;5036169;28;20503;-80
2023/10/25 10:26:02;;;;;;;4.53;3.40;;;;;;;;;;5038493;28;20153;-78
2023/10/25 10:28:44;;;;;;;6.35;3.72;;;;;;;;;;5037719;28;20271;-77
2023/10/25 10:31:13;;;;;;;6.63;3.70;;;;;;;;;;5038758;28;20185;-78
2023/10/25 10:33:46;;;;;;;3.88;3.20;;;;;;;;;;5037232;28;20162;-78
2023/10/25 10:36:25;;;;;;;3.85;3.35;;;;;;;;;;5037790;28;20167;-78
2023/10/25 10:39:10;;;;;;;8.10;4.35;;;;;;;;;;5036576;28;20586;-79
2023/10/25 10:41:36;;;;;;;6.85;4.88;;;;;;;;;;5037388;28;20201;-78
2023/10/25 10:44:03;;;;;;;9.83;5.50;;;;;;;;;;5036577;28;20178;-80
2023/10/25 10:46:30;;;;;;;6.28;5.65;;;;;;;;;;5037772;28;20421;-79
2023/10/25 10:49:01;;;;;;;8.95;5.78;;;;;;;;;;5036358;28;20177;-79
2023/10/25 10:51:27;;;;;;;6.28;5.38;;;;;;;;;;5036528;28;20228;-80
2023/10/25 10:53:53;;;;;;;7.18;5.72;;;;;;;;;;5048863;28;20170;-79
2023/10/25 10:56:19;;;;;;;7.15;5.80;;;;;;;;;;5036969;28;20193;-81
2023/10/25 10:58:46;;;;;;;5.47;4.43;;;;;;;;;;5037331;28;20174;-79
2023/10/25 11:01:13;;;;;;;4.80;4.35;;;;;;;;;;5036195;28;20577;-79
2023/10/25 11:03:39;;;;;;;9.15;4.80;;;;;;;;;;5035892;28;20163;-79
2023/10/25 11:06:05;;;;;;;7.43;5.50;;;;;;;;;;5035821;28;20189;-80
2023/10/25 11:08:32;;;;;;;9.65;5.60;;;;;;;;;;5040656;28;20412;-80
2023/10/25 11:10:58;;;;;;;8.68;7.07;;;;;;;;;;5057354;28;20645;-79
2023/10/25 11:13:24;;;;;;;9.15;7.28;;;;;;;;;;5036509;28;20542;-85
2023/10/25 11:16:00;;;;;;;6.45;5.85;;;;;;;;;;5037491;28;20167;-79
2023/10/25 11:18:26;;;;;;;10.82;7.75;;;;;;;;;;5035784;28;20174;-79
2023/10/25 11:20:52;;;;;;;10.00;7.80;;;;;;;;;;5036163;28;20206;-80
2023/10/25 11:23:19;;;;;;;7.47;6.72;;;;;;;;;;5037078;28;20862;-81
2023/10/25 11:25:45;;;;;;;12.15;7.43;;;;;;;;;;5037098;28;20200;-79
2023/10/25 11:28:12;;;;;;;13.30;8.02;;;;;;;;;;5036512;28;20175;-79
2023/10/25 11:30:40;;;;;;;16.80;9.10;;;;;;;;;;5035627;28;20190;-86
2023/10/25 11:33:06;;;;;;;9.38;8.38;;;;;;;;;;5049001;28;20188;-79
2023/10/25 11:35:34;;;;;;;11.43;8.60;;;;;;;;;;5055647;28;20265;-79
2023/10/25 11:38:00;;;;;;;9.05;7.97;;;;;;;;;;5056131;28;20925;-81
2023/10/25 11:40:43;;;;;;;10.55;7.65;;;;;;;;;;5056496;28;20265;-80
2023/10/25 11:43:09;;;;;;;7.78;7.00;;;;;;;;;;5055549;28;20170;-80
2023/10/25 11:45:37;;;;;;;10.63;6.57;;;;;;;;;;5054238;28;20173;-80
2023/10/25 11:48:04;;;;;;;9.10;5.97;;;;;;;;;;5056692;28;20170;-79
2023/10/25 11:50:30;;;;;;;8.20;7.20;;;;;;;;;;5055097;28;20648;-80
2023/10/25 11:52:58;;;;;;;6.50;5.90;;;;;;;;;;5055258;28;20177;-79
2023/10/25 11:55:25;;;;;;;6.68;6.07;;;;;;;;;;5055317;28;20527;-81
2023/10/25 11:57:51;;;;;;;8.93;6.38;;;;;;;;;;5056685;28;20175;-79
2023/10/25 12:00:17;;;;;;;9.60;6.70;;;;;;;;;;5053337;28;20311;-80
2023/10/25 12:02:44;;;;;;;10.93;7.60;;;;;;;;;;5019001;28;20440;-79
2023/10/25 12:05:10;;;;;;;9.45;6.57;;;;;;;;;;5036346;28;20209;-79
2023/10/25 12:07:36;;;;;;;10.48;6.78;;;;;;;;;;5034765;28;20582;-79
2023/10/25 12:10:06;;;;;;;8.98;6.93;;;;;;;;;;5034983;28;20178;-79
2023/10/25 12:12:33;;;;;;;10.48;7.80;;;;;;;;;;5035809;28;20177;-80
2023/10/25 12:14:59;;;;;;;14.02;7.32;;;;;;;;;;5034816;28;20209;-79
2023/10/25 12:17:25;;;;;;;12.23;7.88;;;;;;;;;;5035915;28;20204;-80
2023/10/25 12:19:51;;;;;;;9.90;8.52;;;;;;;;;;5054902;28;20193;-79
2023/10/25 12:22:18;;;;;;;10.30;7.57;;;;;;;;;;5054591;28;20204;-79
2023/10/25 12:24:46;;;;;;;9.40;8.25;;;;;;;;;;5055550;28;20630;-80
2023/10/25 12:27:12;;;;;;;11.23;8.68;;;;;;;;;;5054582;28;20173;-79
2023/10/25 12:29:38;;;;;;;9.80;7.72;;;;;;;;;;5053066;28;20304;-79
2023/10/25 12:32:05;;;;;;;10.77;8.00;;;;;;;;;;5034465;28;20186;-79
2023/10/25 12:34:31;;;;;;;10.20;7.95;;;;;;;;;;5035639;28;20166;-80
2023/10/25 12:36:57;;;;;;;9.50;8.23;;;;;;;;;;5034592;28;20182;-83
2023/10/25 12:39:23;;;;;;;13.70;8.77;;;;;;;;;;5035523;28;20556;-80
2023/10/25 12:41:49;;;;;;;8.57;6.60;;;;;;;;;;5036772;28;20220;-80
2023/10/25 12:44:15;;;;;;;12.30;8.43;;;;;;;;;;5054736;28;20583;-79
2023/10/25 12:46:42;;;;;;;10.90;8.23;;;;;;;;;;5054186;28;20246;-79
2023/10/25 12:49:08;;;;;;;11.02;9.18;;;;;;;;;;5054677;28;20759;-80
2023/10/25 12:51:35;;;;;;;10.90;8.13;;;;;;;;;;5054973;28;20165;-80
2023/10/25 12:54:00;;;;;;;15.70;8.45;;;;;;;;;;5054094;28;20634;-80
2023/10/25 12:56:27;;;;;;;10.70;8.30;;;;;;;;;;5054693;28;20193;-80
2023/10/25 12:58:53;;;;;;;12.00;7.90;;;;;;;;;;5037661;28;20518;-80
2023/10/25 13:01:19;;;;;;;10.23;7.57;;;;;;;;;;5054138;28;20269;-79
2023/10/25 13:03:46;;;;;;;9.93;7.65;;;;;;;;;;5053828;28;20490;-80
2023/10/25 13:06:12;;;;;;;9.85;8.27;;;;;;;;;;5053782;28;20248;-82
2023/10/25 13:08:38;;;;;;;11.98;7.47;;;;;;;;;;5053509;28;20185;-80
2023/10/25 13:11:04;;;;;;;7.95;6.65;;;;;;;;;;5053234;28;20181;-80
2023/10/25 13:13:30;;;;;;;18.15;9.85;;;;;;;;;;5053711;28;20176;-80
2023/10/25 13:15:56;;;;;;;15.10;10.60;;;;;;;;;;5050201;28;20174;-80
2023/10/25 13:18:22;;;;;;;13.80;10.35;;;;;;;;;;5035608;28;20190;-80
2023/10/25 13:20:49;;;;;;;20.38;10.32;;;;;;;;;;5053394;28;20213;-80
2023/10/25 13:23:15;;;;;;;13.00;10.77;;;;;;;;;;5055246;28;20248;-82
2023/10/25 13:25:41;;;;;;;11.88;9.20;;;;;;;;;;5053268;28;20283;-80
2023/10/25 13:28:07;;;;;;;18.23;11.27;;;;;;;;;;5037779;28;20280;-80
2023/10/25 13:30:34;;;;;;;16.63;12.10;;;;;;;;;;5037075;28;20428;-80
2023/10/25 13:33:00;;;;;;;15.82;10.70;;;;;;;;;;5054151;28;20419;-79
2023/10/25 13:35:26;;;;;;;15.00;10.73;;;;;;;;;;5053777;28;20165;-80
2023/10/25 13:37:52;;;;;;;18.67;13.37;;;;;;;;;;5053498;28;20434;-80
2023/10/25 13:40:18;;;;;;;19.65;13.95;;;;;;;;;;5037104;28;20445;-80
2023/10/25 13:42:44;;;;;;;21.55;16.27;;;;;;;;;;5052983;28;20239;-80
2023/10/25 13:45:10;;;;;;;23.05;15.63;;;;;;;;;;5053416;28;20173;-80
2023/10/25 13:47:36;;;;;;;16.00;11.40;;;;;;;;;;5054850;28;20170;-80
2023/10/25 13:50:02;;;;;;;18.57;11.17;;;;;;;;;;5036605;28;20177;-80
2023/10/25 13:52:28;;;;;;;15.25;10.07;;;;;;;;;;5054663;28;20396;-80
2023/10/25 13:54:54;;;;;;;16.70;10.37;;;;;;;;;;5052872;28;20568;-80
2023/10/25 13:57:20;;;;;;;11.00;9.00;;;;;;;;;;5054838;28;20396;-80
2023/10/25 13:59:46;;;;;;;13.97;9.73;;;;;;;;;;5054042;28;20903;-80
2023/10/25 14:02:12;;;;;;;9.70;8.13;;;;;;;;;;5052794;28;20515;-79
2023/10/25 14:04:38;;;;;;;14.32;11.98;;;;;;;;;;5052831;28;20522;-79
2023/10/25 14:07:04;;;;;;;16.65;10.23;;;;;;;;;;5053151;28;20181;-80
2023/10/25 14:09:30;;;;;;;15.48;11.85;;;;;;;;;;5057122;28;20178;-80
2023/10/25 14:11:56;;;;;;;13.75;11.60;;;;;;;;;;5040205;28;20266;-80
2023/10/25 14:14:22;;;;;;;11.37;8.90;;;;;;;;;;5040603;28;20174;-80
2023/10/25 14:16:48;;;;;;;9.90;8.65;;;;;;;;;;5057375;28;20492;-80
2023/10/25 14:19:17;;;;;;;13.45;10.13;;;;;;;;;;5056374;28;20181;-79
2023/10/25 14:21:44;;;;;;;11.45;9.85;;;;;;;;;;5056584;28;20193;-80
2023/10/25 14:24:10;;;;;;;11.73;10.50;;;;;;;;;;5058293;28;20528;-79
2023/10/25 14:26:40;;;;;;;11.55;9.05;;;;;;;;;;5048325;28;20189;-79
2023/10/25 14:29:07;;;;;;;13.75;9.35;;;;;;;;;;5038095;28;20166;-79
2023/10/25 14:31:34;;;;;;;10.00;8.57;;;;;;;;;;5036227;28;20186;-80
2023/10/25 14:34:01;;;;;;;10.88;8.82;;;;;;;;;;5036351;28;20293;-79